createdAt,value
2018-09-25T00:00:37.499Z,6.50
2018-09-25T00:03:11.481Z,6.50
2018-09-25T00:05:44.622Z,6.50
2018-09-25T00:08:17.922Z,6.40
2018-09-25T00:10:51.190Z,6.40
2018-09-25T00:13:24.429Z,6.40
2018-09-25T00:15:57.560Z,6.30
2018-09-25T00:18:31.669Z,6.30
2018-09-25T00:21:04.909Z,6.30
2018-09-25T00:23:38.209Z,6.40
2018-09-25T00:26:11.236Z,6.40
2018-09-25T00:28:44.489Z,6.50
2018-09-25T00:31:17.653Z,6.60
2018-09-25T00:33:50.896Z,6.50
2018-09-25T00:36:23.985Z,6.50
2018-09-25T00:38:58.218Z,6.50
2018-09-25T00:41:31.301Z,6.50
2018-09-25T00:44:04.546Z,6.60
2018-09-25T00:46:38.488Z,6.70
2018-09-25T00:49:11.705Z,6.60
2018-09-25T00:51:44.802Z,6.60
2018-09-25T00:54:18.017Z,6.50
2018-09-25T00:56:51.109Z,6.50
2018-09-25T00:59:24.401Z,6.40
2018-09-25T01:01:57.498Z,6.40
2018-09-25T01:04:30.742Z,6.30
2018-09-25T01:07:03.888Z,6.30
2018-09-25T01:09:37.126Z,6.10
2018-09-25T01:12:10.325Z,6.00
2018-09-25T01:14:43.542Z,6.10
2018-09-25T01:17:16.544Z,6.00
2018-09-25T01:19:49.684Z,6.00
2018-09-25T01:22:22.957Z,6.00
2018-09-25T01:24:56.218Z,5.90
2018-09-25T01:27:30.394Z,6.00
2018-09-25T01:30:03.601Z,5.90
2018-09-25T01:32:36.794Z,6.00
2018-09-25T01:35:10.778Z,6.00
2018-09-25T01:37:43.849Z,6.00
2018-09-25T01:40:17.071Z,6.00
2018-09-25T01:42:50.289Z,5.90
2018-09-25T01:45:23.301Z,5.90
2018-09-25T01:47:56.621Z,5.80
2018-09-25T01:50:29.682Z,5.80
2018-09-25T01:53:03.762Z,5.80
2018-09-25T01:55:36.962Z,5.90
2018-09-25T01:58:10.201Z,5.80
2018-09-25T02:00:43.463Z,5.80
2018-09-25T02:03:16.721Z,5.80
2018-09-25T02:05:50.826Z,5.80
2018-09-25T02:08:24.998Z,5.80
2018-09-25T02:10:58.074Z,5.80
2018-09-25T02:13:31.178Z,5.80
2018-09-25T02:16:05.174Z,5.80
2018-09-25T02:18:38.435Z,5.80
2018-09-25T02:21:11.554Z,5.80
2018-09-25T02:23:45.798Z,5.70
2018-09-25T02:26:18.862Z,5.60
2018-09-25T02:28:51.960Z,5.60
2018-09-25T02:31:24.993Z,5.70
2018-09-25T02:33:58.216Z,5.60
2018-09-25T02:36:31.489Z,5.60
2018-09-25T02:39:04.726Z,5.60
2018-09-25T02:41:37.854Z,5.60
2018-09-25T02:44:11.038Z,5.50
2018-09-25T02:46:44.188Z,5.60
2018-09-25T02:49:17.433Z,5.60
2018-09-25T02:51:50.579Z,5.60
2018-09-25T02:54:23.850Z,5.50
2018-09-25T02:56:57.066Z,5.50
2018-09-25T02:59:30.322Z,5.40
2018-09-25T03:02:03.539Z,5.40
2018-09-25T03:04:37.593Z,5.40
2018-09-25T03:07:10.686Z,5.40
2018-09-25T03:09:43.904Z,5.40
2018-09-25T03:12:18.082Z,5.40
2018-09-25T03:14:51.145Z,5.30
2018-09-25T03:17:24.377Z,5.20
2018-09-25T03:19:57.478Z,5.30
2018-09-25T03:22:30.726Z,5.30
2018-09-25T03:25:03.830Z,5.30
2018-09-25T03:27:38.057Z,5.30
2018-09-25T03:30:11.248Z,5.40
2018-09-25T03:32:44.357Z,5.30
2018-09-25T03:35:17.565Z,5.30
2018-09-25T03:37:51.523Z,5.30
2018-09-25T03:40:24.666Z,5.30
2018-09-25T03:42:58.861Z,5.20
2018-09-25T03:45:32.091Z,5.30
2018-09-25T03:48:05.395Z,5.40
2018-09-25T03:50:38.586Z,5.40
2018-09-25T03:53:11.773Z,5.50
2018-09-25T03:55:44.937Z,5.50
2018-09-25T03:58:18.965Z,5.50
2018-09-25T04:00:52.169Z,5.50
2018-09-25T04:03:26.450Z,5.50
2018-09-25T04:05:59.589Z,5.50
2018-09-25T04:08:32.719Z,5.50
2018-09-25T04:11:05.936Z,5.60
2018-09-25T04:13:39.150Z,5.60
2018-09-25T04:16:12.258Z,5.70
2018-09-25T04:18:45.535Z,5.70
2018-09-25T04:21:18.696Z,5.70
2018-09-25T04:23:51.889Z,5.60
2018-09-25T04:26:24.977Z,5.60
2018-09-25T04:28:58.205Z,5.60
2018-09-25T04:31:31.274Z,5.60
2018-09-25T04:34:04.516Z,5.50
2018-09-25T04:36:37.656Z,5.40
2018-09-25T04:39:10.854Z,5.40
2018-09-25T04:41:43.946Z,5.50
2018-09-25T04:44:18.109Z,5.50
2018-09-25T04:46:51.825Z,5.50
2018-09-25T04:49:25.130Z,5.50
2018-09-25T04:51:58.253Z,5.40
2018-09-25T04:54:31.509Z,5.40
2018-09-25T04:57:05.724Z,5.40
2018-09-25T04:59:38.974Z,5.50
2018-09-25T05:02:13.042Z,5.50
2018-09-25T05:04:46.261Z,5.50
2018-09-25T05:07:19.449Z,5.50
2018-09-25T05:09:52.715Z,5.50
2018-09-25T05:12:25.970Z,5.50
2018-09-25T05:14:59.226Z,5.50
2018-09-25T05:17:33.365Z,5.70
2018-09-25T05:20:06.467Z,5.90
2018-09-25T05:22:39.534Z,5.90
2018-09-25T05:25:12.758Z,5.90
2018-09-25T05:27:45.785Z,6.00
2018-09-25T05:30:18.885Z,6.10
2018-09-25T05:32:52.869Z,6.10
2018-09-25T05:35:27.022Z,6.00
2018-09-25T05:38:00.243Z,6.00
2018-09-25T05:40:33.397Z,5.90
2018-09-25T05:43:06.622Z,6.00
2018-09-25T05:45:39.817Z,5.90
2018-09-25T05:48:13.044Z,6.00
2018-09-25T05:50:46.050Z,6.00
2018-09-25T05:53:19.322Z,6.10
2018-09-25T05:55:52.490Z,6.10
2018-09-25T05:58:25.683Z,6.20
2018-09-25T06:00:59.931Z,6.20
2018-09-25T06:03:33.237Z,6.20
2018-09-25T06:06:06.439Z,6.30
2018-09-25T06:08:39.648Z,6.40
2018-09-25T06:11:12.760Z,6.50
2018-09-25T06:13:45.991Z,6.50
2018-09-25T06:16:19.086Z,6.60
2018-09-25T06:18:52.427Z,6.70
2018-09-25T06:21:26.522Z,6.80
2018-09-25T06:23:59.742Z,7.00
2018-09-25T06:26:32.811Z,7.30
2018-09-25T06:29:06.032Z,7.50
2018-09-25T06:31:39.118Z,7.70
2018-09-25T06:34:13.125Z,8.00
2018-09-25T06:36:46.260Z,8.00
2018-09-25T06:39:19.444Z,8.10
2018-09-25T06:41:52.715Z,8.20
2018-09-25T06:44:25.960Z,8.30
2018-09-25T06:46:59.020Z,8.60
2018-09-25T06:49:32.209Z,8.70
2018-09-25T06:52:05.346Z,9.00
2018-09-25T06:54:38.614Z,9.20
2018-09-25T06:57:11.629Z,9.30
2018-09-25T06:59:44.806Z,9.40
2018-09-25T07:02:17.945Z,9.50
2018-09-25T07:04:51.076Z,9.60
2018-09-25T07:07:24.317Z,9.70
2018-09-25T07:09:58.419Z,9.80
2018-09-25T07:12:31.639Z,9.90
2018-09-25T07:15:04.674Z,9.90
2018-09-25T07:17:37.966Z,9.90
2018-09-25T07:20:10.982Z,10.00
2018-09-25T07:22:44.327Z,10.20
2018-09-25T07:25:18.221Z,10.30
2018-09-25T07:27:51.490Z,10.20
2018-09-25T07:30:24.630Z,10.30
2018-09-25T07:32:58.809Z,10.40
2018-09-25T07:35:32.040Z,10.50
2018-09-25T07:38:05.275Z,10.60
2018-09-25T07:40:38.458Z,10.70
2018-09-25T07:43:11.678Z,10.90
2018-09-25T07:45:44.716Z,11.00
2018-09-25T07:48:18.026Z,10.80
2018-09-25T07:50:51.124Z,11.00
2018-09-25T07:53:25.293Z,11.10
2018-09-25T07:55:58.384Z,11.30
2018-09-25T07:58:31.689Z,11.30
2018-09-25T08:01:04.917Z,11.40
2018-09-25T08:03:38.068Z,11.60
2018-09-25T08:06:11.160Z,11.60
2018-09-25T08:08:45.389Z,11.70
2018-09-25T08:11:18.647Z,11.60
2018-09-25T08:13:52.866Z,11.80
2018-09-25T08:16:26.014Z,11.90
2018-09-25T08:18:59.225Z,11.80
2018-09-25T08:21:32.306Z,12.00
2018-09-25T08:24:05.494Z,12.00
2018-09-25T08:26:38.709Z,12.00
2018-09-25T08:29:11.937Z,12.10
2018-09-25T08:31:45.014Z,12.20
2018-09-25T08:34:19.049Z,12.00
2018-09-25T08:36:52.591Z,12.00
2018-09-25T08:39:25.987Z,12.20
2018-09-25T08:41:59.222Z,12.50
2018-09-25T08:44:32.515Z,12.70
2018-09-25T08:47:05.761Z,12.80
2018-09-25T08:49:39.077Z,13.00
2018-09-25T08:52:12.437Z,12.90
2018-09-25T08:54:45.813Z,13.00
2018-09-25T08:57:18.895Z,13.20
2018-09-25T08:59:52.216Z,13.30
2018-09-25T09:02:25.506Z,13.40
2018-09-25T09:04:58.634Z,13.30
2018-09-25T09:07:31.865Z,13.30
2018-09-25T09:10:05.137Z,13.40
2018-09-25T09:12:38.386Z,13.60
2018-09-25T09:15:11.621Z,13.50
2018-09-25T09:17:45.515Z,13.70
2018-09-25T09:20:19.776Z,13.80
2018-09-25T09:22:53.096Z,13.80
2018-09-25T09:25:26.357Z,14.00
2018-09-25T09:27:59.574Z,14.10
2018-09-25T09:30:32.767Z,14.20
2018-09-25T09:33:05.951Z,14.30
2018-09-25T09:35:39.258Z,14.30
2018-09-25T09:38:12.566Z,14.30
2018-09-25T09:40:45.692Z,14.20
2018-09-25T09:43:18.921Z,14.30
2018-09-25T09:45:52.050Z,14.50
2018-09-25T09:48:26.287Z,14.70
2018-09-25T09:50:59.437Z,14.70
2018-09-25T09:53:32.616Z,14.70
2018-09-25T09:56:05.727Z,14.90
2018-09-25T09:58:38.964Z,15.00
2018-09-25T10:01:12.033Z,14.90
2018-09-25T10:03:45.322Z,15.00
2018-09-25T10:06:18.582Z,14.80
2018-09-25T10:08:51.797Z,14.70
2018-09-25T10:11:25.190Z,14.80
2018-09-25T10:13:58.442Z,14.90
2018-09-25T10:16:31.574Z,15.00
2018-09-25T10:19:05.787Z,15.10
2018-09-25T10:21:38.897Z,15.30
2018-09-25T10:24:12.052Z,15.40
2018-09-25T10:26:45.269Z,15.50
2018-09-25T10:29:18.491Z,15.80
2018-09-25T10:31:51.649Z,15.90
2018-09-25T10:34:24.839Z,15.80
2018-09-25T10:36:57.967Z,15.80
2018-09-25T10:39:31.181Z,15.90
2018-09-25T10:42:04.383Z,16.00
2018-09-25T10:44:37.604Z,15.80
2018-09-25T10:47:10.870Z,16.00
2018-09-25T10:49:44.139Z,16.10
2018-09-25T10:52:17.446Z,16.00
2018-09-25T10:54:50.508Z,15.90
2018-09-25T10:57:23.680Z,15.80
2018-09-25T10:59:56.894Z,16.10
2018-09-25T11:02:30.158Z,15.80
2018-09-25T11:05:03.262Z,16.00
2018-09-25T11:07:36.539Z,16.20
2018-09-25T11:10:09.811Z,16.00
2018-09-25T11:12:42.918Z,15.80
2018-09-25T11:15:15.953Z,16.20
2018-09-25T11:17:49.257Z,16.20
2018-09-25T11:20:22.494Z,16.00
2018-09-25T11:22:56.673Z,16.10
2018-09-25T11:25:29.938Z,16.00
2018-09-25T11:28:03.399Z,15.90
2018-09-25T11:30:37.184Z,16.30
2018-09-25T11:33:10.464Z,16.30
2018-09-25T11:35:43.918Z,16.50
2018-09-25T11:38:17.203Z,16.90
2018-09-25T11:40:50.428Z,16.90
2018-09-25T11:43:23.665Z,17.10
2018-09-25T11:45:56.751Z,17.00
2018-09-25T11:48:30.921Z,17.10
2018-09-25T11:51:04.105Z,17.20
2018-09-25T11:53:37.394Z,17.40
2018-09-25T11:56:10.647Z,17.40
2018-09-25T11:58:43.897Z,17.30
2018-09-25T12:01:17.337Z,17.50
2018-09-25T12:03:50.610Z,17.30
2018-09-25T12:06:23.746Z,17.40
2018-09-25T12:08:58.029Z,17.60
2018-09-25T12:11:31.187Z,17.70
2018-09-25T12:14:05.187Z,17.90
2018-09-25T12:16:38.322Z,17.80
2018-09-25T12:19:11.597Z,17.90
2018-09-25T12:21:44.708Z,17.90
2018-09-25T12:24:18.042Z,17.50
2018-09-25T12:26:51.220Z,17.60
2018-09-25T12:29:24.514Z,17.90
2018-09-25T12:31:57.569Z,18.00
2018-09-25T12:34:30.850Z,18.00
2018-09-25T12:37:04.943Z,17.70
2018-09-25T12:39:38.358Z,17.70
2018-09-25T12:42:11.626Z,17.90
2018-09-25T12:44:44.873Z,17.60
2018-09-25T12:47:18.064Z,17.40
2018-09-25T12:49:52.238Z,17.70
2018-09-25T12:52:26.444Z,17.80
2018-09-25T12:55:00.478Z,17.70
2018-09-25T12:57:33.661Z,18.00
2018-09-25T13:00:07.818Z,17.60
2018-09-25T13:02:40.902Z,17.70
2018-09-25T13:05:14.249Z,18.40
2018-09-25T13:07:48.308Z,18.40
2018-09-25T13:10:21.437Z,18.20
2018-09-25T13:12:54.642Z,18.40
2018-09-25T13:15:28.888Z,18.10
2018-09-25T13:18:02.905Z,18.80
2018-09-25T13:20:36.914Z,19.30
2018-09-25T13:23:10.122Z,19.30
2018-09-25T13:25:43.226Z,19.00
2018-09-25T13:28:16.511Z,18.40
2018-09-25T13:30:49.561Z,18.30
2018-09-25T13:33:22.754Z,18.10
2018-09-25T13:35:56.086Z,18.40
2018-09-25T13:38:29.507Z,18.50
2018-09-25T13:41:03.646Z,18.30
2018-09-25T13:43:38.596Z,18.10
2018-09-25T13:46:12.536Z,18.20
2018-09-25T13:48:45.778Z,18.20
2018-09-25T13:51:19.006Z,18.70
2018-09-25T13:53:52.217Z,18.20
2018-09-25T13:56:25.302Z,18.40
2018-09-25T13:58:58.533Z,18.50
2018-09-25T14:01:31.607Z,19.00
2018-09-25T14:04:04.842Z,18.70
2018-09-25T14:06:37.953Z,18.30
2018-09-25T14:09:11.127Z,18.30
2018-09-25T14:11:44.531Z,18.60
2018-09-25T14:14:17.772Z,19.10
2018-09-25T14:16:51.798Z,19.10
2018-09-25T14:19:25.025Z,19.10
2018-09-25T14:21:58.163Z,19.20
2018-09-25T14:24:31.360Z,19.80
2018-09-25T14:27:04.484Z,19.80
2018-09-25T14:29:37.695Z,20.10
2018-09-25T14:32:10.953Z,20.20
2018-09-25T14:34:44.236Z,20.10
2018-09-25T14:37:17.446Z,20.30
2018-09-25T14:39:50.541Z,19.90
2018-09-25T14:42:23.853Z,20.10
2018-09-25T14:44:56.929Z,19.70
2018-09-25T14:47:30.195Z,20.10
2018-09-25T14:50:04.197Z,20.10
2018-09-25T14:52:37.417Z,20.00
2018-09-25T14:55:10.481Z,20.60
2018-09-25T14:57:43.633Z,20.90
2018-09-25T15:00:16.718Z,20.70
2018-09-25T15:02:50.748Z,20.20
2018-09-25T15:05:23.753Z,20.20
2018-09-25T15:07:56.990Z,20.90
2018-09-25T15:10:30.934Z,21.60
2018-09-25T15:13:04.193Z,21.60
2018-09-25T15:15:37.287Z,21.60
2018-09-25T15:18:10.483Z,21.30
2018-09-25T15:20:43.665Z,21.10
2018-09-25T15:23:17.717Z,20.50
2018-09-25T15:25:51.882Z,20.50
2018-09-25T15:28:25.133Z,19.20
2018-09-25T15:30:58.421Z,18.40
2018-09-25T15:33:33.418Z,17.90
2018-09-25T15:36:06.835Z,17.20
2018-09-25T15:38:41.052Z,17.00
2018-09-25T15:41:14.351Z,16.90
2018-09-25T15:43:47.645Z,16.50
2018-09-25T15:46:20.933Z,16.50
2018-09-25T15:48:54.179Z,16.50
2018-09-25T15:51:28.198Z,16.20
2018-09-25T15:54:01.586Z,16.20
2018-09-25T15:56:34.734Z,16.20
2018-09-25T15:59:08.001Z,16.10
2018-09-25T16:01:41.011Z,15.90
2018-09-25T16:04:14.186Z,16.10
2018-09-25T16:06:47.206Z,16.10
2018-09-25T16:09:21.439Z,16.00
2018-09-25T16:11:54.598Z,16.00
2018-09-25T16:14:27.866Z,15.80
2018-09-25T16:17:01.055Z,15.80
2018-09-25T16:19:34.355Z,15.70
2018-09-25T16:22:07.577Z,15.60
2018-09-25T16:24:41.518Z,15.60
2018-09-25T16:27:14.624Z,15.60
2018-09-25T16:29:47.834Z,15.40
2018-09-25T16:32:21.619Z,15.30
2018-09-25T16:34:54.753Z,15.30
2018-09-25T16:37:28.002Z,15.20
2018-09-25T16:40:01.071Z,15.20
2018-09-25T16:42:34.367Z,15.20
2018-09-25T16:45:07.434Z,15.20
2018-09-25T16:47:40.513Z,15.20
2018-09-25T16:50:13.741Z,15.00
2018-09-25T16:52:46.882Z,14.90
2018-09-25T16:55:20.898Z,14.80
2018-09-25T16:57:54.185Z,14.80
2018-09-25T17:00:27.317Z,14.60
2018-09-25T17:03:00.495Z,14.70
2018-09-25T17:05:33.748Z,14.70
2018-09-25T17:08:06.929Z,14.60
2018-09-25T17:10:40.022Z,14.50
2018-09-25T17:13:13.280Z,14.40
2018-09-25T17:15:46.444Z,14.30
2018-09-25T17:18:19.634Z,14.20
2018-09-25T17:20:53.753Z,14.10
2018-09-25T17:23:26.977Z,14.00
2018-09-25T17:26:00.034Z,14.00
2018-09-25T17:28:33.256Z,13.90
2018-09-25T17:31:06.378Z,13.80
2018-09-25T17:33:39.613Z,13.70
2018-09-25T17:36:12.751Z,13.70
2018-09-25T17:38:45.959Z,13.70
2018-09-25T17:41:19.264Z,13.60
2018-09-25T17:43:53.470Z,13.60
2018-09-25T17:46:26.580Z,13.50
2018-09-25T17:48:59.814Z,13.40
2018-09-25T17:51:32.902Z,13.40
2018-09-25T17:54:06.102Z,13.20
2018-09-25T17:56:39.939Z,13.30
2018-09-25T17:59:13.199Z,13.30
2018-09-25T18:01:46.378Z,13.20
2018-09-25T18:04:19.563Z,13.20
2018-09-25T18:06:52.626Z,13.00
2018-09-25T18:09:25.846Z,13.00
2018-09-25T18:12:00.070Z,12.90
2018-09-25T18:14:33.262Z,12.90
2018-09-25T18:17:06.843Z,12.90
2018-09-25T18:19:40.111Z,12.80
2018-09-25T18:22:13.224Z,12.70
2018-09-25T18:24:46.461Z,12.80
2018-09-25T18:27:19.575Z,12.70
2018-09-25T18:29:52.858Z,12.70
2018-09-25T18:32:27.069Z,12.60
2018-09-25T18:35:00.161Z,12.50
2018-09-25T18:37:33.417Z,12.40
2018-09-25T18:40:07.833Z,12.40
2018-09-25T18:42:41.103Z,12.30
2018-09-25T18:45:14.986Z,12.30
2018-09-25T18:47:48.185Z,12.20
2018-09-25T18:50:21.438Z,12.10
2018-09-25T18:52:54.583Z,12.10
2018-09-25T18:55:27.824Z,12.10
2018-09-25T18:58:01.823Z,12.10
2018-09-25T19:00:35.075Z,12.00
2018-09-25T19:03:08.181Z,11.90
2018-09-25T19:05:41.319Z,11.80
2018-09-25T19:08:14.533Z,11.80
2018-09-25T19:10:47.774Z,11.70
2018-09-25T19:13:21.022Z,11.70
2018-09-25T19:15:55.013Z,11.60
2018-09-25T19:18:29.196Z,11.60
2018-09-25T19:21:02.448Z,11.50
2018-09-25T19:23:35.681Z,11.50
2018-09-25T19:26:08.858Z,11.40
2018-09-25T19:28:42.839Z,11.30
2018-09-25T19:31:15.898Z,11.30
2018-09-25T19:33:49.071Z,11.30
2018-09-25T19:36:23.334Z,11.10
2018-09-25T19:38:56.566Z,11.00
2018-09-25T19:41:29.738Z,11.00
2018-09-25T19:44:03.042Z,11.00
2018-09-25T19:46:37.302Z,11.10
2018-09-25T19:49:10.609Z,11.00
2018-09-25T19:51:44.731Z,11.00
2018-09-25T19:54:17.997Z,11.00
2018-09-25T19:56:51.073Z,11.10
2018-09-25T19:59:24.355Z,11.10
2018-09-25T20:01:57.461Z,11.20
2018-09-25T20:04:30.694Z,11.20
2018-09-25T20:07:05.466Z,11.10
2018-09-25T20:09:38.653Z,11.00
2018-09-25T20:12:11.815Z,11.00
2018-09-25T20:14:44.965Z,11.00
2018-09-25T20:17:18.413Z,11.00
2018-09-25T20:19:51.750Z,11.10
2018-09-25T20:22:24.959Z,11.00
2018-09-25T20:24:58.872Z,11.00
2018-09-25T20:27:32.866Z,11.00
2018-09-25T20:30:05.962Z,11.00
2018-09-25T20:32:39.153Z,10.90
2018-09-25T20:35:13.217Z,10.80
2018-09-25T20:37:46.285Z,10.90
2018-09-25T20:40:20.576Z,10.90
2018-09-25T20:42:53.794Z,10.90
2018-09-25T20:45:26.924Z,10.90
2018-09-25T20:48:00.166Z,10.90
2018-09-25T20:50:33.350Z,10.80
2018-09-25T20:53:06.564Z,10.80
2018-09-25T20:55:39.769Z,10.70
2018-09-25T20:58:13.077Z,10.70
2018-09-25T21:00:46.166Z,10.60
2018-09-25T21:03:19.421Z,10.60
2018-09-25T21:05:52.570Z,10.60
2018-09-25T21:08:25.826Z,10.40
2018-09-25T21:10:59.070Z,10.50
2018-09-25T21:13:32.270Z,10.50
2018-09-25T21:16:05.409Z,10.50
2018-09-25T21:18:38.654Z,10.50
2018-09-25T21:21:11.794Z,10.40
2018-09-25T21:23:45.046Z,10.40
2018-09-25T21:26:18.094Z,10.40
2018-09-25T21:28:51.374Z,10.40
2018-09-25T21:31:24.483Z,10.40
2018-09-25T21:33:57.738Z,10.50
2018-09-25T21:36:31.808Z,10.30
2018-09-25T21:39:05.166Z,10.30
2018-09-25T21:41:38.177Z,10.30
2018-09-25T21:44:11.386Z,10.30
2018-09-25T21:46:44.514Z,10.30
2018-09-25T21:49:17.721Z,10.30
2018-09-25T21:51:51.028Z,10.10
2018-09-25T21:54:24.311Z,10.20
2018-09-25T21:56:57.692Z,10.10
2018-09-25T21:59:30.873Z,10.20
2018-09-25T22:02:04.092Z,10.10
2018-09-25T22:04:38.222Z,10.20
2018-09-25T22:07:11.515Z,10.20
2018-09-25T22:09:44.769Z,10.10
2018-09-25T22:12:17.725Z,10.10
2018-09-25T22:14:52.569Z,10.10
2018-09-25T22:17:25.762Z,10.10
2018-09-25T22:19:59.114Z,10.20
2018-09-25T22:22:32.327Z,10.10
2018-09-25T22:25:05.577Z,10.10
2018-09-25T22:27:38.786Z,10.10
2018-09-25T22:30:12.011Z,10.00
2018-09-25T22:32:45.153Z,10.00
2018-09-25T22:35:19.190Z,10.00
2018-09-25T22:37:53.225Z,10.00
2018-09-25T22:40:26.331Z,10.00
2018-09-25T22:42:59.534Z,10.00
2018-09-25T22:45:32.648Z,9.90
2018-09-25T22:48:05.857Z,9.90
2018-09-25T22:50:39.058Z,9.90
2018-09-25T22:53:12.222Z,9.90
2018-09-25T22:55:45.478Z,9.80
2018-09-25T22:58:18.669Z,9.80
2018-09-25T23:00:51.893Z,9.80
2018-09-25T23:03:25.268Z,9.80
2018-09-25T23:05:58.341Z,9.80
2018-09-25T23:08:31.574Z,9.80
2018-09-25T23:11:04.699Z,9.80
2018-09-25T23:13:38.834Z,9.80
2018-09-25T23:16:12.061Z,9.70
2018-09-25T23:18:45.348Z,9.60
2018-09-25T23:21:18.421Z,9.60
2018-09-25T23:23:51.634Z,9.60
2018-09-25T23:26:24.905Z,9.60
2018-09-25T23:28:58.120Z,9.60
2018-09-25T23:31:31.302Z,9.70
2018-09-25T23:34:05.254Z,9.70
2018-09-25T23:36:38.413Z,9.70
2018-09-25T23:39:06.886Z,9.60
2018-09-25T23:41:34.477Z,9.60
2018-09-25T23:44:02.023Z,9.70
2018-09-25T23:46:29.597Z,9.60
2018-09-25T23:48:58.105Z,9.70
2018-09-25T23:51:25.649Z,9.70
2018-09-25T23:53:54.175Z,9.70
2018-09-25T23:56:22.738Z,9.80
2018-09-25T23:58:51.174Z,9.70
